MDPCTNCM

Guest
Details From MDPC - Punta Cana Intl
To TNCM - St Maarten - Princess Juliana Intl
Flight Number -
Tags Generated
Created
Modified
Stats Distance 302 nm / 558 km
Max Altitude 0 ft / 0 m
Waypoints 4
Social Downloads 2
Likes 0
Share VATSIM

Download

Looking for another format? Having issues loading an existing format? Contact us
Advertisement - Login to hide

Notes

Generated

Route

MDPC GARCY PJM02 TNCM

ID Type Via Altitude Latitude Longitude Leg Dist Tot Dist Heading (true) Name
O MDPC APT - 0 ft / 0 m 18.56610˚ -68.37806˚ - 0 nm - -
GARCY FIX - 0 ft / 0 m 18.36267˚ -66.19997˚ 124 nm 124 nm 95° / 96° -
PJM02 FIX - 0 ft / 0 m 18.03461˚ -63.15309˚ 174 nm 299 nm 96° / 97° -
O TNCM APT - 0 ft / 0 m 18.03937˚ -63.11961˚ 1 nm 301 nm 81° / 82° -

Altitude Profile

Advertisement - Login to hide

Weather


0- 5 10 15 20 25 30 35+ Temperature / ° C

Clouds and Precipitation
Forecast for 2017-12-11 18:00 UTC. Updated 2 hours ago

Ground ~20,000 ft ~40,000 ft Winds

MDPC

Details ICAO MDPC (PUJ)
Name Punta Cana Intl
Region Dominican Republic
Timezone America/Santo_Domingo (UTC-4.0)
Stats Elevation 46 ft / 14 m (AMSL)
Location 18.570574° -68.366130°
Runways 2
Magnetic Variation 12.179° W

METAR

MDPC 111700Z 06005KT 9999 SCT024 28/21 Q1014 NOSIG

Decode

TAF

Not found

Departure Runways

ID Width Length Bearing (true) Bearing (mag) Surface Threshold Offset Overrun Length
08 148 ft / 45 m 10,110 ft / 3,082 m 74.20° 86.38° Asphalt 0 ft / 0 m 374 ft / 114 m
09 148 ft / 45 m 10,163 ft / 3,098 m 84.79° 96.97° Asphalt 0 ft / 0 m 374 ft / 114 m
26 148 ft / 45 m 10,110 ft / 3,082 m 254.21° 266.39° Asphalt 0 ft / 0 m 374 ft / 114 m
27 148 ft / 45 m 10,163 ft / 3,098 m 264.80° 276.98° Asphalt 0 ft / 0 m 374 ft / 114 m

TNCM

Details ICAO TNCM (SXM)
Name St Maarten - Princess Juliana Intl
Region Caribbean Netherlands, Aruba, Curaçao, Sint Maarten
Timezone Unknown (UTC+0.0)
Stats Elevation 12 ft / 4 m (AMSL)
Location 18.040889° -63.108974°
Runways 1
Magnetic Variation 14.325° W

METAR

TNCM 111700Z 06010KT 030V090 9999 FEW020 29/20 Q1012 A2990 NOSIG

Decode

TAF

TAF TNCM 111141Z 1112/1212 06010KT P6SM FEW020

Decode

Destination Runways

ID Width Length Bearing (true) Bearing (mag) Surface Threshold Offset Overrun Length
10 148 ft / 45 m 7,464 ft / 2,275 m 81.43° 95.75° Asphalt 0 ft / 0 m 151 ft / 46 m
28 148 ft / 45 m 7,464 ft / 2,275 m 261.44° 275.76° Asphalt 397 ft / 121 m 0 ft / 0 m

Popular Alternatives